sensor_id;sensor_type;location;lat;lon;timestamp;P1;durP1;ratioP1;P2;durP2;ratioP2
8066;SDS011;4076;48.076;9.118;2023-05-10T00:02:23;3.23;;;1.47;;
8066;SDS011;4076;48.076;9.118;2023-05-10T00:04:49;2.90;;;0.90;;
8066;SDS011;4076;48.076;9.118;2023-05-10T00:07:15;2.90;;;0.90;;
8066;SDS011;4076;48.076;9.118;2023-05-10T00:09:42;3.03;;;1.03;;
8066;SDS011;4076;48.076;9.118;2023-05-10T00:12:08;3.33;;;1.40;;
8066;SDS011;4076;48.076;9.118;2023-05-10T00:14:33;2.90;;;0.90;;
8066;SDS011;4076;48.076;9.118;2023-05-10T00:16:59;2.90;;;0.90;;
8066;SDS011;4076;48.076;9.118;2023-05-10T00:19:25;2.87;;;1.00;;
8066;SDS011;4076;48.076;9.118;2023-05-10T00:21:50;2.90;;;1.10;;
8066;SDS011;4076;48.076;9.118;2023-05-10T00:24:16;2.80;;;0.90;;
8066;SDS011;4076;48.076;9.118;2023-05-10T00:26:41;2.90;;;0.70;;
8066;SDS011;4076;48.076;9.118;2023-05-10T00:29:07;3.10;;;0.90;;
8066;SDS011;4076;48.076;9.118;2023-05-10T00:31:32;2.90;;;0.90;;
8066;SDS011;4076;48.076;9.118;2023-05-10T00:33:58;3.33;;;1.07;;
8066;SDS011;4076;48.076;9.118;2023-05-10T00:36:23;3.93;;;1.20;;
8066;SDS011;4076;48.076;9.118;2023-05-10T00:38:49;2.80;;;0.90;;
8066;SDS011;4076;48.076;9.118;2023-05-10T00:41:15;2.60;;;0.70;;
8066;SDS011;4076;48.076;9.118;2023-05-10T00:43:40;3.27;;;0.80;;
8066;SDS011;4076;48.076;9.118;2023-05-10T00:46:06;2.60;;;0.80;;
8066;SDS011;4076;48.076;9.118;2023-05-10T00:48:32;2.67;;;0.80;;
8066;SDS011;4076;48.076;9.118;2023-05-10T00:50:58;3.30;;;1.30;;
8066;SDS011;4076;48.076;9.118;2023-05-10T00:53:24;2.90;;;0.90;;
8066;SDS011;4076;48.076;9.118;2023-05-10T00:55:49;2.80;;;0.80;;
8066;SDS011;4076;48.076;9.118;2023-05-10T00:58:16;3.90;;;0.80;;
8066;SDS011;4076;48.076;9.118;2023-05-10T01:00:42;2.80;;;0.97;;
8066;SDS011;4076;48.076;9.118;2023-05-10T01:03:11;2.70;;;0.70;;
8066;SDS011;4076;48.076;9.118;2023-05-10T01:05:37;2.70;;;0.80;;
8066;SDS011;4076;48.076;9.118;2023-05-10T01:08:03;3.40;;;0.80;;
8066;SDS011;4076;48.076;9.118;2023-05-10T01:10:28;2.80;;;0.97;;
8066;SDS011;4076;48.076;9.118;2023-05-10T01:12:55;2.60;;;0.70;;
8066;SDS011;4076;48.076;9.118;2023-05-10T01:15:21;2.77;;;0.87;;
8066;SDS011;4076;48.076;9.118;2023-05-10T01:17:47;2.63;;;0.70;;
8066;SDS011;4076;48.076;9.118;2023-05-10T01:20:13;7.40;;;1.23;;
8066;SDS011;4076;48.076;9.118;2023-05-10T01:34:19;2.70;;;0.80;;
8066;SDS011;4076;48.076;9.118;2023-05-10T01:37:05;2.60;;;0.70;;
8066;SDS011;4076;48.076;9.118;2023-05-10T01:39:40;2.90;;;0.77;;
8066;SDS011;4076;48.076;9.118;2023-05-10T01:42:11;3.47;;;0.87;;
8066;SDS011;4076;48.076;9.118;2023-05-10T01:44:55;2.70;;;0.77;;
8066;SDS011;4076;48.076;9.118;2023-05-10T01:47:35;2.70;;;0.80;;
8066;SDS011;4076;48.076;9.118;2023-05-10T01:50:06;2.97;;;0.87;;
8066;SDS011;4076;48.076;9.118;2023-05-10T01:52:41;7.33;;;2.30;;
8066;SDS011;4076;48.076;9.118;2023-05-10T01:55:11;2.87;;;0.90;;
8066;SDS011;4076;48.076;9.118;2023-05-10T01:57:40;2.40;;;0.70;;
8066;SDS011;4076;48.076;9.118;2023-05-10T02:00:09;2.60;;;0.90;;
8066;SDS011;4076;48.076;9.118;2023-05-10T02:02:39;3.10;;;0.83;;
8066;SDS011;4076;48.076;9.118;2023-05-10T02:05:07;4.10;;;0.90;;
8066;SDS011;4076;48.076;9.118;2023-05-10T02:07:34;2.50;;;0.80;;
8066;SDS011;4076;48.076;9.118;2023-05-10T02:10:04;2.50;;;0.70;;
8066;SDS011;4076;48.076;9.118;2023-05-10T02:12:35;2.60;;;0.90;;
8066;SDS011;4076;48.076;9.118;2023-05-10T02:15:03;2.53;;;0.83;;
8066;SDS011;4076;48.076;9.118;2023-05-10T02:17:30;2.57;;;0.80;;
8066;SDS011;4076;48.076;9.118;2023-05-10T02:19:57;2.37;;;0.80;;
8066;SDS011;4076;48.076;9.118;2023-05-10T02:22:24;2.70;;;1.00;;
8066;SDS011;4076;48.076;9.118;2023-05-10T02:24:52;2.80;;;0.90;;
8066;SDS011;4076;48.076;9.118;2023-05-10T02:27:20;3.50;;;1.20;;
8066;SDS011;4076;48.076;9.118;2023-05-10T02:29:48;2.60;;;0.80;;
8066;SDS011;4076;48.076;9.118;2023-05-10T02:32:15;3.30;;;1.10;;
8066;SDS011;4076;48.076;9.118;2023-05-10T02:34:42;2.80;;;0.90;;
8066;SDS011;4076;48.076;9.118;2023-05-10T02:37:10;2.60;;;0.90;;
8066;SDS011;4076;48.076;9.118;2023-05-10T02:39:38;2.70;;;0.90;;
8066;SDS011;4076;48.076;9.118;2023-05-10T02:42:08;2.63;;;0.93;;
8066;SDS011;4076;48.076;9.118;2023-05-10T02:44:40;2.57;;;0.87;;
8066;SDS011;4076;48.076;9.118;2023-05-10T02:47:08;2.77;;;1.00;;
8066;SDS011;4076;48.076;9.118;2023-05-10T02:49:33;2.90;;;0.83;;
8066;SDS011;4076;48.076;9.118;2023-05-10T02:52:00;2.53;;;0.83;;
8066;SDS011;4076;48.076;9.118;2023-05-10T02:54:30;2.80;;;0.90;;
8066;SDS011;4076;48.076;9.118;2023-05-10T02:56:58;2.90;;;0.87;;
8066;SDS011;4076;48.076;9.118;2023-05-10T02:59:25;2.60;;;0.80;;
8066;SDS011;4076;48.076;9.118;2023-05-10T03:01:51;3.20;;;0.90;;
8066;SDS011;4076;48.076;9.118;2023-05-10T03:04:17;2.73;;;0.90;;
8066;SDS011;4076;48.076;9.118;2023-05-10T03:06:42;2.80;;;0.80;;
8066;SDS011;4076;48.076;9.118;2023-05-10T03:09:09;2.80;;;1.00;;
8066;SDS011;4076;48.076;9.118;2023-05-10T03:17:11;3.07;;;0.90;;
8066;SDS011;4076;48.076;9.118;2023-05-10T03:19:53;2.47;;;0.80;;
8066;SDS011;4076;48.076;9.118;2023-05-10T03:22:27;3.10;;;1.00;;
8066;SDS011;4076;48.076;9.118;2023-05-10T03:24:59;2.97;;;1.30;;
8066;SDS011;4076;48.076;9.118;2023-05-10T03:27:30;2.60;;;1.00;;
8066;SDS011;4076;48.076;9.118;2023-05-10T03:29:57;2.70;;;0.90;;
8066;SDS011;4076;48.076;9.118;2023-05-10T03:32:23;3.10;;;1.00;;
8066;SDS011;4076;48.076;9.118;2023-05-10T03:34:49;2.90;;;1.00;;
8066;SDS011;4076;48.076;9.118;2023-05-10T03:37:14;2.90;;;1.00;;
8066;SDS011;4076;48.076;9.118;2023-05-10T03:39:40;3.00;;;1.00;;
8066;SDS011;4076;48.076;9.118;2023-05-10T03:42:05;3.10;;;1.00;;
8066;SDS011;4076;48.076;9.118;2023-05-10T03:44:31;3.40;;;1.20;;
8066;SDS011;4076;48.076;9.118;2023-05-10T03:46:58;3.00;;;1.00;;
8066;SDS011;4076;48.076;9.118;2023-05-10T03:49:24;2.90;;;1.00;;
8066;SDS011;4076;48.076;9.118;2023-05-10T03:51:49;2.60;;;0.90;;
8066;SDS011;4076;48.076;9.118;2023-05-10T03:54:15;2.73;;;1.00;;
8066;SDS011;4076;48.076;9.118;2023-05-10T03:56:40;3.00;;;1.00;;
8066;SDS011;4076;48.076;9.118;2023-05-10T03:59:06;2.70;;;1.03;;
8066;SDS011;4076;48.076;9.118;2023-05-10T04:01:32;3.10;;;1.10;;
8066;SDS011;4076;48.076;9.118;2023-05-10T04:03:58;2.77;;;0.93;;
8066;SDS011;4076;48.076;9.118;2023-05-10T04:06:24;3.10;;;1.13;;
8066;SDS011;4076;48.076;9.118;2023-05-10T04:08:49;2.70;;;1.07;;
8066;SDS011;4076;48.076;9.118;2023-05-10T04:11:15;3.00;;;1.10;;
8066;SDS011;4076;48.076;9.118;2023-05-10T04:13:41;2.80;;;1.20;;
8066;SDS011;4076;48.076;9.118;2023-05-10T04:16:07;3.30;;;1.13;;
8066;SDS011;4076;48.076;9.118;2023-05-10T04:18:33;2.60;;;0.90;;
8066;SDS011;4076;48.076;9.118;2023-05-10T04:20:59;3.27;;;1.13;;
8066;SDS011;4076;48.076;9.118;2023-05-10T04:23:25;2.90;;;1.07;;
8066;SDS011;4076;48.076;9.118;2023-05-10T04:25:51;6.00;;;1.10;;
8066;SDS011;4076;48.076;9.118;2023-05-10T04:28:17;2.80;;;0.90;;
8066;SDS011;4076;48.076;9.118;2023-05-10T04:30:43;2.70;;;1.00;;
8066;SDS011;4076;48.076;9.118;2023-05-10T04:33:08;3.03;;;1.10;;
8066;SDS011;4076;48.076;9.118;2023-05-10T04:35:34;3.40;;;1.03;;
8066;SDS011;4076;48.076;9.118;2023-05-10T04:38:00;3.03;;;0.97;;
8066;SDS011;4076;48.076;9.118;2023-05-10T04:40:25;3.10;;;1.00;;
8066;SDS011;4076;48.076;9.118;2023-05-10T04:42:51;2.93;;;1.27;;
8066;SDS011;4076;48.076;9.118;2023-05-10T04:45:16;2.87;;;1.10;;
8066;SDS011;4076;48.076;9.118;2023-05-10T04:47:42;3.00;;;1.10;;
8066;SDS011;4076;48.076;9.118;2023-05-10T04:50:07;3.60;;;1.30;;
8066;SDS011;4076;48.076;9.118;2023-05-10T04:52:33;4.17;;;1.20;;
8066;SDS011;4076;48.076;9.118;2023-05-10T04:54:59;2.90;;;1.10;;
8066;SDS011;4076;48.076;9.118;2023-05-10T04:57:24;3.73;;;1.50;;
8066;SDS011;4076;48.076;9.118;2023-05-10T04:59:50;2.90;;;1.00;;
8066;SDS011;4076;48.076;9.118;2023-05-10T05:02:15;3.40;;;1.30;;
8066;SDS011;4076;48.076;9.118;2023-05-10T05:04:41;2.87;;;1.07;;
8066;SDS011;4076;48.076;9.118;2023-05-10T05:07:07;4.10;;;1.20;;
8066;SDS011;4076;48.076;9.118;2023-05-10T05:09:32;4.13;;;1.87;;
8066;SDS011;4076;48.076;9.118;2023-05-10T05:11:58;4.17;;;1.73;;
8066;SDS011;4076;48.076;9.118;2023-05-10T05:14:23;6.40;;;2.03;;
8066;SDS011;4076;48.076;9.118;2023-05-10T05:16:52;4.70;;;2.37;;
8066;SDS011;4076;48.076;9.118;2023-05-10T05:19:18;6.20;;;3.27;;
8066;SDS011;4076;48.076;9.118;2023-05-10T05:21:43;4.80;;;2.00;;
8066;SDS011;4076;48.076;9.118;2023-05-10T05:24:09;3.97;;;2.53;;
8066;SDS011;4076;48.076;9.118;2023-05-10T05:26:36;3.27;;;1.40;;
8066;SDS011;4076;48.076;9.118;2023-05-10T05:29:01;3.27;;;1.30;;
8066;SDS011;4076;48.076;9.118;2023-05-10T05:31:27;4.33;;;1.10;;
8066;SDS011;4076;48.076;9.118;2023-05-10T05:33:53;2.70;;;1.07;;
8066;SDS011;4076;48.076;9.118;2023-05-10T05:36:19;3.33;;;0.97;;
8066;SDS011;4076;48.076;9.118;2023-05-10T05:38:44;4.17;;;1.30;;
8066;SDS011;4076;48.076;9.118;2023-05-10T05:41:10;3.27;;;1.30;;
8066;SDS011;4076;48.076;9.118;2023-05-10T05:43:35;3.20;;;1.10;;
8066;SDS011;4076;48.076;9.118;2023-05-10T05:46:02;3.40;;;1.50;;
8066;SDS011;4076;48.076;9.118;2023-05-10T05:48:29;3.00;;;1.30;;
8066;SDS011;4076;48.076;9.118;2023-05-10T05:50:55;3.67;;;1.40;;
8066;SDS011;4076;48.076;9.118;2023-05-10T05:53:21;2.63;;;0.93;;
8066;SDS011;4076;48.076;9.118;2023-05-10T05:55:56;3.10;;;1.13;;
8066;SDS011;4076;48.076;9.118;2023-05-10T05:58:23;2.63;;;0.97;;
8066;SDS011;4076;48.076;9.118;2023-05-10T06:00:50;3.60;;;1.27;;
8066;SDS011;4076;48.076;9.118;2023-05-10T06:03:16;3.37;;;1.23;;
8066;SDS011;4076;48.076;9.118;2023-05-10T06:05:42;2.83;;;1.10;;
8066;SDS011;4076;48.076;9.118;2023-05-10T06:08:08;3.10;;;1.27;;
8066;SDS011;4076;48.076;9.118;2023-05-10T06:10:33;3.03;;;1.10;;
8066;SDS011;4076;48.076;9.118;2023-05-10T06:12:59;3.47;;;1.40;;
8066;SDS011;4076;48.076;9.118;2023-05-10T06:15:25;2.90;;;1.10;;
8066;SDS011;4076;48.076;9.118;2023-05-10T06:17:51;3.00;;;1.20;;
8066;SDS011;4076;48.076;9.118;2023-05-10T06:20:16;3.10;;;1.30;;
8066;SDS011;4076;48.076;9.118;2023-05-10T06:22:42;2.90;;;1.10;;
8066;SDS011;4076;48.076;9.118;2023-05-10T06:25:08;3.30;;;1.20;;
8066;SDS011;4076;48.076;9.118;2023-05-10T06:27:34;3.87;;;1.30;;
8066;SDS011;4076;48.076;9.118;2023-05-10T06:30:00;3.70;;;1.67;;
8066;SDS011;4076;48.076;9.118;2023-05-10T06:32:26;3.80;;;2.00;;
8066;SDS011;4076;48.076;9.118;2023-05-10T06:34:52;3.93;;;1.90;;
8066;SDS011;4076;48.076;9.118;2023-05-10T06:37:17;3.97;;;1.70;;
8066;SDS011;4076;48.076;9.118;2023-05-10T06:39:43;5.20;;;1.60;;
8066;SDS011;4076;48.076;9.118;2023-05-10T06:42:08;2.90;;;1.20;;
8066;SDS011;4076;48.076;9.118;2023-05-10T06:44:34;2.70;;;1.00;;
8066;SDS011;4076;48.076;9.118;2023-05-10T06:46:59;4.30;;;1.40;;
8066;SDS011;4076;48.076;9.118;2023-05-10T06:49:25;3.20;;;1.20;;
8066;SDS011;4076;48.076;9.118;2023-05-10T06:51:51;3.30;;;1.30;;
8066;SDS011;4076;48.076;9.118;2023-05-10T06:54:16;2.90;;;1.27;;
8066;SDS011;4076;48.076;9.118;2023-05-10T06:56:42;3.40;;;1.40;;
8066;SDS011;4076;48.076;9.118;2023-05-10T06:59:08;3.40;;;1.20;;
8066;SDS011;4076;48.076;9.118;2023-05-10T07:01:34;2.93;;;1.10;;
8066;SDS011;4076;48.076;9.118;2023-05-10T07:03:59;2.80;;;0.90;;
8066;SDS011;4076;48.076;9.118;2023-05-10T07:06:25;3.40;;;1.33;;
8066;SDS011;4076;48.076;9.118;2023-05-10T07:08:50;3.47;;;1.10;;
8066;SDS011;4076;48.076;9.118;2023-05-10T07:11:16;3.30;;;1.40;;
8066;SDS011;4076;48.076;9.118;2023-05-10T07:13:41;3.40;;;1.13;;
8066;SDS011;4076;48.076;9.118;2023-05-10T07:16:09;3.77;;;1.37;;
8066;SDS011;4076;48.076;9.118;2023-05-10T07:18:34;3.00;;;1.10;;
8066;SDS011;4076;48.076;9.118;2023-05-10T07:21:00;2.90;;;1.00;;
8066;SDS011;4076;48.076;9.118;2023-05-10T07:23:26;2.90;;;1.47;;
8066;SDS011;4076;48.076;9.118;2023-05-10T07:25:52;3.13;;;1.37;;
8066;SDS011;4076;48.076;9.118;2023-05-10T07:28:18;4.17;;;1.30;;
8066;SDS011;4076;48.076;9.118;2023-05-10T07:30:44;3.07;;;1.20;;
8066;SDS011;4076;48.076;9.118;2023-05-10T07:33:10;3.10;;;1.43;;
8066;SDS011;4076;48.076;9.118;2023-05-10T07:35:38;3.40;;;1.20;;
8066;SDS011;4076;48.076;9.118;2023-05-10T07:38:04;2.83;;;1.23;;
8066;SDS011;4076;48.076;9.118;2023-05-10T07:40:29;3.47;;;1.20;;
8066;SDS011;4076;48.076;9.118;2023-05-10T07:42:56;3.20;;;1.07;;
8066;SDS011;4076;48.076;9.118;2023-05-10T07:45:22;3.60;;;1.33;;
8066;SDS011;4076;48.076;9.118;2023-05-10T07:47:48;3.10;;;1.20;;
8066;SDS011;4076;48.076;9.118;2023-05-10T07:50:14;2.90;;;1.13;;
8066;SDS011;4076;48.076;9.118;2023-05-10T07:52:40;3.80;;;1.30;;
8066;SDS011;4076;48.076;9.118;2023-05-10T07:55:06;3.20;;;1.20;;
8066;SDS011;4076;48.076;9.118;2023-05-10T07:57:33;3.90;;;1.23;;
8066;SDS011;4076;48.076;9.118;2023-05-10T07:59:59;2.80;;;1.03;;
8066;SDS011;4076;48.076;9.118;2023-05-10T08:02:25;3.10;;;1.10;;
8066;SDS011;4076;48.076;9.118;2023-05-10T08:04:50;2.70;;;0.97;;
8066;SDS011;4076;48.076;9.118;2023-05-10T08:07:16;2.80;;;1.07;;
8066;SDS011;4076;48.076;9.118;2023-05-10T08:09:42;2.77;;;1.10;;
8066;SDS011;4076;48.076;9.118;2023-05-10T08:12:07;2.93;;;1.00;;
8066;SDS011;4076;48.076;9.118;2023-05-10T08:14:33;2.93;;;1.10;;
8066;SDS011;4076;48.076;9.118;2023-05-10T08:16:59;2.80;;;1.30;;
8066;SDS011;4076;48.076;9.118;2023-05-10T08:19:24;2.70;;;1.00;;
8066;SDS011;4076;48.076;9.118;2023-05-10T08:21:50;2.47;;;0.90;;
8066;SDS011;4076;48.076;9.118;2023-05-10T08:24:15;3.77;;;1.30;;
8066;SDS011;4076;48.076;9.118;2023-05-10T08:26:41;2.60;;;1.10;;
8066;SDS011;4076;48.076;9.118;2023-05-10T08:29:06;2.60;;;1.10;;
8066;SDS011;4076;48.076;9.118;2023-05-10T08:31:32;2.53;;;1.00;;
8066;SDS011;4076;48.076;9.118;2023-05-10T08:33:57;4.10;;;1.40;;
8066;SDS011;4076;48.076;9.118;2023-05-10T08:36:23;3.57;;;1.00;;
8066;SDS011;4076;48.076;9.118;2023-05-10T08:38:49;3.57;;;1.53;;
8066;SDS011;4076;48.076;9.118;2023-05-10T08:41:17;2.80;;;1.00;;
8066;SDS011;4076;48.076;9.118;2023-05-10T08:43:46;2.57;;;1.03;;
8066;SDS011;4076;48.076;9.118;2023-05-10T08:46:14;2.47;;;0.70;;
8066;SDS011;4076;48.076;9.118;2023-05-10T08:48:43;3.50;;;0.87;;
8066;SDS011;4076;48.076;9.118;2023-05-10T08:51:10;3.53;;;0.90;;
8066;SDS011;4076;48.076;9.118;2023-05-10T08:53:39;2.60;;;0.80;;
8066;SDS011;4076;48.076;9.118;2023-05-10T08:56:05;4.60;;;1.40;;
8066;SDS011;4076;48.076;9.118;2023-05-10T08:58:31;3.10;;;0.90;;
8066;SDS011;4076;48.076;9.118;2023-05-10T09:00:57;2.60;;;0.90;;
8066;SDS011;4076;48.076;9.118;2023-05-10T09:03:24;3.27;;;0.90;;
8066;SDS011;4076;48.076;9.118;2023-05-10T09:05:49;3.20;;;1.00;;
8066;SDS011;4076;48.076;9.118;2023-05-10T09:08:15;2.90;;;0.90;;
8066;SDS011;4076;48.076;9.118;2023-05-10T09:10:42;3.47;;;0.80;;
8066;SDS011;4076;48.076;9.118;2023-05-10T09:13:09;3.83;;;1.23;;
8066;SDS011;4076;48.076;9.118;2023-05-10T09:15:36;2.97;;;1.10;;
8066;SDS011;4076;48.076;9.118;2023-05-10T09:18:02;3.13;;;1.17;;
8066;SDS011;4076;48.076;9.118;2023-05-10T09:20:27;3.10;;;1.00;;
8066;SDS011;4076;48.076;9.118;2023-05-10T09:22:53;3.30;;;1.20;;
8066;SDS011;4076;48.076;9.118;2023-05-10T09:25:19;3.20;;;1.20;;
8066;SDS011;4076;48.076;9.118;2023-05-10T09:27:45;3.90;;;1.50;;
8066;SDS011;4076;48.076;9.118;2023-05-10T09:30:15;3.00;;;1.13;;
8066;SDS011;4076;48.076;9.118;2023-05-10T09:32:44;3.30;;;0.93;;
8066;SDS011;4076;48.076;9.118;2023-05-10T09:35:11;2.60;;;0.90;;
8066;SDS011;4076;48.076;9.118;2023-05-10T09:37:41;2.80;;;1.00;;
8066;SDS011;4076;48.076;9.118;2023-05-10T09:40:12;2.63;;;1.00;;
8066;SDS011;4076;48.076;9.118;2023-05-10T09:42:42;3.60;;;1.37;;
8066;SDS011;4076;48.076;9.118;2023-05-10T09:45:16;3.63;;;1.20;;
8066;SDS011;4076;48.076;9.118;2023-05-10T09:47:41;3.47;;;1.30;;
8066;SDS011;4076;48.076;9.118;2023-05-10T09:50:07;2.80;;;0.90;;
8066;SDS011;4076;48.076;9.118;2023-05-10T09:52:45;2.63;;;0.87;;
8066;SDS011;4076;48.076;9.118;2023-05-10T09:55:15;5.20;;;1.00;;
8066;SDS011;4076;48.076;9.118;2023-05-10T09:57:42;4.10;;;1.00;;
8066;SDS011;4076;48.076;9.118;2023-05-10T10:00:08;2.43;;;0.93;;
8066;SDS011;4076;48.076;9.118;2023-05-10T10:02:37;2.50;;;1.00;;
8066;SDS011;4076;48.076;9.118;2023-05-10T10:05:03;2.60;;;0.90;;
8066;SDS011;4076;48.076;9.118;2023-05-10T10:07:31;3.00;;;1.00;;
8066;SDS011;4076;48.076;9.118;2023-05-10T10:09:56;2.50;;;1.00;;
8066;SDS011;4076;48.076;9.118;2023-05-10T10:12:23;2.80;;;0.90;;
8066;SDS011;4076;48.076;9.118;2023-05-10T10:14:50;2.70;;;0.93;;
8066;SDS011;4076;48.076;9.118;2023-05-10T10:17:17;3.63;;;1.17;;
8066;SDS011;4076;48.076;9.118;2023-05-10T10:19:44;3.80;;;1.60;;
8066;SDS011;4076;48.076;9.118;2023-05-10T10:22:11;4.20;;;1.70;;
8066;SDS011;4076;48.076;9.118;2023-05-10T10:24:37;6.30;;;2.83;;
8066;SDS011;4076;48.076;9.118;2023-05-10T10:27:09;2.83;;;1.13;;
8066;SDS011;4076;48.076;9.118;2023-05-10T10:32:59;2.37;;;0.80;;
8066;SDS011;4076;48.076;9.118;2023-05-10T10:35:28;2.60;;;1.20;;
8066;SDS011;4076;48.076;9.118;2023-05-10T10:37:55;2.23;;;0.83;;
8066;SDS011;4076;48.076;9.118;2023-05-10T10:40:25;2.40;;;1.00;;
8066;SDS011;4076;48.076;9.118;2023-05-10T10:42:51;2.50;;;1.00;;
8066;SDS011;4076;48.076;9.118;2023-05-10T10:45:17;2.60;;;1.10;;
8066;SDS011;4076;48.076;9.118;2023-05-10T10:47:42;2.70;;;1.20;;
8066;SDS011;4076;48.076;9.118;2023-05-10T10:50:10;3.13;;;1.80;;
8066;SDS011;4076;48.076;9.118;2023-05-10T10:52:38;3.10;;;1.17;;
8066;SDS011;4076;48.076;9.118;2023-05-10T10:55:05;3.63;;;1.20;;
8066;SDS011;4076;48.076;9.118;2023-05-10T10:57:49;3.80;;;1.50;;
8066;SDS011;4076;48.076;9.118;2023-05-10T11:00:28;3.40;;;1.10;;
8066;SDS011;4076;48.076;9.118;2023-05-10T11:03:04;3.37;;;1.10;;
8066;SDS011;4076;48.076;9.118;2023-05-10T11:05:45;2.70;;;1.00;;
8066;SDS011;4076;48.076;9.118;2023-05-10T11:08:19;4.40;;;2.10;;
8066;SDS011;4076;48.076;9.118;2023-05-10T11:13:37;5.47;;;3.90;;
8066;SDS011;4076;48.076;9.118;2023-05-10T11:16:12;3.73;;;1.50;;
8066;SDS011;4076;48.076;9.118;2023-05-10T11:18:57;2.90;;;1.20;;
8066;SDS011;4076;48.076;9.118;2023-05-10T11:21:26;4.80;;;1.30;;
8066;SDS011;4076;48.076;9.118;2023-05-10T11:23:55;2.80;;;1.20;;
8066;SDS011;4076;48.076;9.118;2023-05-10T11:26:22;3.47;;;1.40;;
8066;SDS011;4076;48.076;9.118;2023-05-10T11:28:51;5.90;;;1.53;;
8066;SDS011;4076;48.076;9.118;2023-05-10T11:31:19;3.77;;;1.70;;
8066;SDS011;4076;48.076;9.118;2023-05-10T11:33:46;8.90;;;2.13;;
8066;SDS011;4076;48.076;9.118;2023-05-10T11:36:15;3.30;;;1.37;;
8066;SDS011;4076;48.076;9.118;2023-05-10T11:38:46;4.17;;;1.60;;
8066;SDS011;4076;48.076;9.118;2023-05-10T11:41:13;2.70;;;1.27;;
8066;SDS011;4076;48.076;9.118;2023-05-10T11:43:40;4.20;;;1.40;;
8066;SDS011;4076;48.076;9.118;2023-05-10T11:46:06;4.73;;;1.20;;
8066;SDS011;4076;48.076;9.118;2023-05-10T11:48:33;4.20;;;1.43;;
8066;SDS011;4076;48.076;9.118;2023-05-10T11:50:58;3.37;;;1.40;;
8066;SDS011;4076;48.076;9.118;2023-05-10T11:53:27;4.40;;;2.70;;
8066;SDS011;4076;48.076;9.118;2023-05-10T11:55:54;3.67;;;2.13;;
8066;SDS011;4076;48.076;9.118;2023-05-10T11:58:19;4.37;;;2.10;;
8066;SDS011;4076;48.076;9.118;2023-05-10T12:00:46;3.50;;;1.67;;
8066;SDS011;4076;48.076;9.118;2023-05-10T12:03:13;4.30;;;1.50;;
8066;SDS011;4076;48.076;9.118;2023-05-10T12:05:38;3.10;;;1.57;;
8066;SDS011;4076;48.076;9.118;2023-05-10T12:08:13;3.10;;;1.53;;
8066;SDS011;4076;48.076;9.118;2023-05-10T12:10:39;4.00;;;1.60;;
8066;SDS011;4076;48.076;9.118;2023-05-10T12:13:05;3.33;;;1.57;;
8066;SDS011;4076;48.076;9.118;2023-05-10T12:15:35;3.20;;;1.70;;
8066;SDS011;4076;48.076;9.118;2023-05-10T12:18:00;3.87;;;1.87;;
8066;SDS011;4076;48.076;9.118;2023-05-10T12:20:27;3.60;;;1.80;;
8066;SDS011;4076;48.076;9.118;2023-05-10T12:22:54;4.37;;;1.70;;
8066;SDS011;4076;48.076;9.118;2023-05-10T12:25:21;4.37;;;2.13;;
8066;SDS011;4076;48.076;9.118;2023-05-10T12:27:49;5.30;;;2.57;;
8066;SDS011;4076;48.076;9.118;2023-05-10T12:30:21;4.40;;;1.70;;
8066;SDS011;4076;48.076;9.118;2023-05-10T12:32:53;4.10;;;1.70;;
8066;SDS011;4076;48.076;9.118;2023-05-10T12:35:24;3.13;;;1.60;;
8066;SDS011;4076;48.076;9.118;2023-05-10T12:37:50;3.60;;;1.50;;
8066;SDS011;4076;48.076;9.118;2023-05-10T12:40:16;3.90;;;1.67;;
8066;SDS011;4076;48.076;9.118;2023-05-10T12:42:41;2.70;;;1.20;;
8066;SDS011;4076;48.076;9.118;2023-05-10T12:45:08;3.40;;;1.50;;
8066;SDS011;4076;48.076;9.118;2023-05-10T12:47:34;3.70;;;1.80;;
8066;SDS011;4076;48.076;9.118;2023-05-10T12:50:00;4.23;;;1.80;;
8066;SDS011;4076;48.076;9.118;2023-05-10T12:52:27;5.00;;;1.50;;
8066;SDS011;4076;48.076;9.118;2023-05-10T12:54:53;3.17;;;1.63;;
8066;SDS011;4076;48.076;9.118;2023-05-10T12:57:22;3.30;;;1.50;;
8066;SDS011;4076;48.076;9.118;2023-05-10T12:59:48;6.43;;;3.80;;
8066;SDS011;4076;48.076;9.118;2023-05-10T13:02:14;5.50;;;1.53;;
8066;SDS011;4076;48.076;9.118;2023-05-10T13:04:40;3.10;;;1.40;;
8066;SDS011;4076;48.076;9.118;2023-05-10T13:07:06;3.73;;;1.80;;
8066;SDS011;4076;48.076;9.118;2023-05-10T13:09:32;8.87;;;3.47;;
8066;SDS011;4076;48.076;9.118;2023-05-10T13:11:58;11.90;;;4.77;;
8066;SDS011;4076;48.076;9.118;2023-05-10T13:14:24;8.10;;;3.63;;
8066;SDS011;4076;48.076;9.118;2023-05-10T13:16:51;3.83;;;1.80;;
8066;SDS011;4076;48.076;9.118;2023-05-10T13:19:17;3.10;;;1.40;;
8066;SDS011;4076;48.076;9.118;2023-05-10T13:21:42;3.53;;;1.30;;
8066;SDS011;4076;48.076;9.118;2023-05-10T13:24:09;3.70;;;1.30;;
8066;SDS011;4076;48.076;9.118;2023-05-10T13:26:36;3.27;;;1.60;;
8066;SDS011;4076;48.076;9.118;2023-05-10T13:29:01;3.53;;;1.97;;
8066;SDS011;4076;48.076;9.118;2023-05-10T13:31:28;2.97;;;1.40;;
8066;SDS011;4076;48.076;9.118;2023-05-10T13:33:53;5.43;;;2.30;;
8066;SDS011;4076;48.076;9.118;2023-05-10T13:36:19;3.47;;;1.40;;
8066;SDS011;4076;48.076;9.118;2023-05-10T13:38:45;5.63;;;1.90;;
8066;SDS011;4076;48.076;9.118;2023-05-10T13:41:10;2.63;;;1.20;;
8066;SDS011;4076;48.076;9.118;2023-05-10T13:43:36;2.97;;;1.10;;
8066;SDS011;4076;48.076;9.118;2023-05-10T13:46:01;2.90;;;1.20;;
8066;SDS011;4076;48.076;9.118;2023-05-10T13:48:27;16.80;;;12.43;;
8066;SDS011;4076;48.076;9.118;2023-05-10T13:50:53;4.80;;;3.37;;
8066;SDS011;4076;48.076;9.118;2023-05-10T13:53:18;3.23;;;1.80;;
8066;SDS011;4076;48.076;9.118;2023-05-10T13:55:44;3.17;;;1.50;;
8066;SDS011;4076;48.076;9.118;2023-05-10T13:58:10;2.80;;;1.30;;
8066;SDS011;4076;48.076;9.118;2023-05-10T14:00:35;4.33;;;1.50;;
8066;SDS011;4076;48.076;9.118;2023-05-10T14:03:01;3.87;;;1.37;;
8066;SDS011;4076;48.076;9.118;2023-05-10T14:05:27;8.73;;;6.13;;
8066;SDS011;4076;48.076;9.118;2023-05-10T14:07:52;23.77;;;15.70;;
8066;SDS011;4076;48.076;9.118;2023-05-10T14:10:18;14.00;;;10.83;;
8066;SDS011;4076;48.076;9.118;2023-05-10T14:12:44;7.40;;;5.47;;
8066;SDS011;4076;48.076;9.118;2023-05-10T14:15:09;5.70;;;2.70;;
8066;SDS011;4076;48.076;9.118;2023-05-10T14:17:36;24.87;;;16.17;;
8066;SDS011;4076;48.076;9.118;2023-05-10T14:20:02;34.63;;;26.73;;
8066;SDS011;4076;48.076;9.118;2023-05-10T14:22:28;24.30;;;17.73;;
8066;SDS011;4076;48.076;9.118;2023-05-10T14:24:54;10.37;;;7.30;;
8066;SDS011;4076;48.076;9.118;2023-05-10T14:27:20;4.17;;;2.53;;
8066;SDS011;4076;48.076;9.118;2023-05-10T14:29:46;3.47;;;1.90;;
8066;SDS011;4076;48.076;9.118;2023-05-10T14:32:12;2.93;;;1.50;;
8066;SDS011;4076;48.076;9.118;2023-05-10T14:34:38;4.33;;;2.60;;
8066;SDS011;4076;48.076;9.118;2023-05-10T14:37:03;3.03;;;1.70;;
8066;SDS011;4076;48.076;9.118;2023-05-10T14:39:29;5.20;;;3.47;;
8066;SDS011;4076;48.076;9.118;2023-05-10T14:41:55;6.00;;;2.50;;
8066;SDS011;4076;48.076;9.118;2023-05-10T14:44:21;4.00;;;1.87;;
8066;SDS011;4076;48.076;9.118;2023-05-10T14:46:46;3.40;;;1.87;;
8066;SDS011;4076;48.076;9.118;2023-05-10T14:49:13;3.27;;;1.23;;
8066;SDS011;4076;48.076;9.118;2023-05-10T14:51:38;2.83;;;1.37;;
8066;SDS011;4076;48.076;9.118;2023-05-10T14:54:04;3.07;;;1.40;;
8066;SDS011;4076;48.076;9.118;2023-05-10T14:56:31;3.07;;;1.20;;
8066;SDS011;4076;48.076;9.118;2023-05-10T14:58:57;4.57;;;1.70;;
8066;SDS011;4076;48.076;9.118;2023-05-10T15:01:22;2.90;;;1.40;;
8066;SDS011;4076;48.076;9.118;2023-05-10T15:03:48;2.87;;;1.30;;
8066;SDS011;4076;48.076;9.118;2023-05-10T15:06:14;5.17;;;2.00;;
8066;SDS011;4076;48.076;9.118;2023-05-10T15:08:41;3.73;;;1.97;;
8066;SDS011;4076;48.076;9.118;2023-05-10T15:11:06;4.73;;;2.53;;
8066;SDS011;4076;48.076;9.118;2023-05-10T15:13:32;3.50;;;1.77;;
8066;SDS011;4076;48.076;9.118;2023-05-10T15:15:57;4.43;;;2.60;;
8066;SDS011;4076;48.076;9.118;2023-05-10T15:18:23;4.40;;;2.03;;
8066;SDS011;4076;48.076;9.118;2023-05-10T15:20:48;3.40;;;1.83;;
8066;SDS011;4076;48.076;9.118;2023-05-10T15:23:14;4.50;;;1.70;;
8066;SDS011;4076;48.076;9.118;2023-05-10T15:25:39;4.27;;;1.70;;
8066;SDS011;4076;48.076;9.118;2023-05-10T15:28:05;5.47;;;1.63;;
8066;SDS011;4076;48.076;9.118;2023-05-10T15:30:31;2.87;;;1.50;;
8066;SDS011;4076;48.076;9.118;2023-05-10T15:32:56;5.40;;;1.60;;
8066;SDS011;4076;48.076;9.118;2023-05-10T15:35:22;3.80;;;2.00;;
8066;SDS011;4076;48.076;9.118;2023-05-10T15:37:48;5.10;;;2.10;;